sensor_id;sensor_type;location;lat;lon;timestamp;P1;durP1;ratioP1;P2;durP2;ratioP2
1593;SDS011;790;47.000;16.084;2023-10-09T00:01:51;2.07;;;1.80;;
1593;SDS011;790;47.000;16.084;2023-10-09T00:04:20;1.63;;;1.53;;
1593;SDS011;790;47.000;16.084;2023-10-09T00:06:48;1.83;;;1.70;;
1593;SDS011;790;47.000;16.084;2023-10-09T00:09:15;1.93;;;1.70;;
1593;SDS011;790;47.000;16.084;2023-10-09T00:12:06;2.03;;;1.40;;
1593;SDS011;790;47.000;16.084;2023-10-09T00:14:35;1.53;;;1.43;;
1593;SDS011;790;47.000;16.084;2023-10-09T00:17:05;1.70;;;1.60;;
1593;SDS011;790;47.000;16.084;2023-10-09T00:19:44;2.03;;;1.67;;
1593;SDS011;790;47.000;16.084;2023-10-09T00:22:13;2.57;;;1.83;;
1593;SDS011;790;47.000;16.084;2023-10-09T00:24:51;1.50;;;1.40;;
1593;SDS011;790;47.000;16.084;2023-10-09T00:27:37;2.07;;;1.97;;
1593;SDS011;790;47.000;16.084;2023-10-09T00:30:08;2.43;;;1.67;;
1593;SDS011;790;47.000;16.084;2023-10-09T00:32:40;2.10;;;1.90;;
1593;SDS011;790;47.000;16.084;2023-10-09T00:35:29;2.00;;;1.80;;
1593;SDS011;790;47.000;16.084;2023-10-09T00:38:04;2.20;;;1.60;;
1593;SDS011;790;47.000;16.084;2023-10-09T00:40:39;1.63;;;1.53;;
1593;SDS011;790;47.000;16.084;2023-10-09T00:43:12;1.60;;;1.43;;
1593;SDS011;790;47.000;16.084;2023-10-09T00:45:39;1.73;;;1.63;;
1593;SDS011;790;47.000;16.084;2023-10-09T00:48:09;3.37;;;1.90;;
1593;SDS011;790;47.000;16.084;2023-10-09T00:50:40;2.27;;;1.73;;
1593;SDS011;790;47.000;16.084;2023-10-09T00:53:17;1.90;;;1.80;;
1593;SDS011;790;47.000;16.084;2023-10-09T00:55:56;1.80;;;1.60;;
1593;SDS011;790;47.000;16.084;2023-10-09T00:58:28;1.90;;;1.73;;
1593;SDS011;790;47.000;16.084;2023-10-09T01:00:56;1.63;;;1.53;;
1593;SDS011;790;47.000;16.084;2023-10-09T01:03:24;1.50;;;1.40;;
1593;SDS011;790;47.000;16.084;2023-10-09T01:05:55;2.90;;;1.60;;
1593;SDS011;790;47.000;16.084;2023-10-09T01:08:24;1.63;;;1.53;;
1593;SDS011;790;47.000;16.084;2023-10-09T01:10:55;1.50;;;1.40;;
1593;SDS011;790;47.000;16.084;2023-10-09T01:13:24;1.87;;;1.70;;
1593;SDS011;790;47.000;16.084;2023-10-09T01:16:05;1.73;;;1.60;;
1593;SDS011;790;47.000;16.084;2023-10-09T01:18:38;2.73;;;1.60;;
1593;SDS011;790;47.000;16.084;2023-10-09T01:21:09;2.00;;;1.80;;
1593;SDS011;790;47.000;16.084;2023-10-09T01:23:40;2.10;;;1.70;;
1593;SDS011;790;47.000;16.084;2023-10-09T01:26:24;1.90;;;1.70;;
1593;SDS011;790;47.000;16.084;2023-10-09T01:28:51;2.50;;;1.73;;
1593;SDS011;790;47.000;16.084;2023-10-09T01:31:23;1.77;;;1.67;;
1593;SDS011;790;47.000;16.084;2023-10-09T01:33:51;1.50;;;1.40;;
1593;SDS011;790;47.000;16.084;2023-10-09T01:36:24;1.60;;;1.50;;
1593;SDS011;790;47.000;16.084;2023-10-09T01:38:59;1.73;;;1.63;;
1593;SDS011;790;47.000;16.084;2023-10-09T01:41:33;1.60;;;1.50;;
1593;SDS011;790;47.000;16.084;2023-10-09T01:44:02;1.50;;;1.40;;
1593;SDS011;790;47.000;16.084;2023-10-09T01:46:37;1.90;;;1.77;;
1593;SDS011;790;47.000;16.084;2023-10-09T01:49:04;1.80;;;1.70;;
1593;SDS011;790;47.000;16.084;2023-10-09T01:51:42;1.80;;;1.70;;
1593;SDS011;790;47.000;16.084;2023-10-09T01:54:11;1.70;;;1.60;;
1593;SDS011;790;47.000;16.084;2023-10-09T01:56:53;1.70;;;1.60;;
1593;SDS011;790;47.000;16.084;2023-10-09T01:59:21;2.33;;;1.67;;
1593;SDS011;790;47.000;16.084;2023-10-09T02:01:48;2.07;;;1.90;;
1593;SDS011;790;47.000;16.084;2023-10-09T02:04:21;2.23;;;1.90;;
1593;SDS011;790;47.000;16.084;2023-10-09T02:06:48;2.60;;;1.87;;
1593;SDS011;790;47.000;16.084;2023-10-09T02:09:19;1.60;;;1.50;;
1593;SDS011;790;47.000;16.084;2023-10-09T02:11:53;2.00;;;1.77;;
1593;SDS011;790;47.000;16.084;2023-10-09T02:14:21;1.50;;;1.40;;
1593;SDS011;790;47.000;16.084;2023-10-09T02:16:50;1.70;;;1.60;;
1593;SDS011;790;47.000;16.084;2023-10-09T02:19:33;2.10;;;1.40;;
1593;SDS011;790;47.000;16.084;2023-10-09T02:22:00;1.47;;;1.47;;
1593;SDS011;790;47.000;16.084;2023-10-09T02:24:40;2.50;;;1.60;;
1593;SDS011;790;47.000;16.084;2023-10-09T02:27:24;2.87;;;1.53;;
1593;SDS011;790;47.000;16.084;2023-10-09T02:30:11;3.63;;;1.37;;
1593;SDS011;790;47.000;16.084;2023-10-09T02:32:45;1.50;;;1.40;;
1593;SDS011;790;47.000;16.084;2023-10-09T02:35:18;1.40;;;1.33;;
1593;SDS011;790;47.000;16.084;2023-10-09T02:38:01;2.13;;;1.47;;
1593;SDS011;790;47.000;16.084;2023-10-09T02:40:37;1.70;;;1.60;;
1593;SDS011;790;47.000;16.084;2023-10-09T02:43:27;2.10;;;1.93;;
1593;SDS011;790;47.000;16.084;2023-10-09T02:45:59;1.93;;;1.50;;
1593;SDS011;790;47.000;16.084;2023-10-09T02:48:38;1.47;;;1.37;;
1593;SDS011;790;47.000;16.084;2023-10-09T02:51:08;1.87;;;1.77;;
1593;SDS011;790;47.000;16.084;2023-10-09T02:53:43;1.50;;;1.40;;
1593;SDS011;790;47.000;16.084;2023-10-09T02:56:15;1.50;;;1.40;;
1593;SDS011;790;47.000;16.084;2023-10-09T02:58:43;2.73;;;1.50;;
1593;SDS011;790;47.000;16.084;2023-10-09T03:01:13;1.47;;;1.37;;
1593;SDS011;790;47.000;16.084;2023-10-09T03:03:40;1.27;;;1.17;;
1593;SDS011;790;47.000;16.084;2023-10-09T03:06:12;1.50;;;1.40;;
1593;SDS011;790;47.000;16.084;2023-10-09T03:08:44;1.90;;;1.80;;
1593;SDS011;790;47.000;16.084;2023-10-09T03:11:13;1.77;;;1.50;;
1593;SDS011;790;47.000;16.084;2023-10-09T03:13:42;1.53;;;1.43;;
1593;SDS011;790;47.000;16.084;2023-10-09T03:16:10;2.43;;;1.40;;
1593;SDS011;790;47.000;16.084;2023-10-09T03:18:45;1.90;;;1.80;;
1593;SDS011;790;47.000;16.084;2023-10-09T03:21:13;1.60;;;1.50;;
1593;SDS011;790;47.000;16.084;2023-10-09T03:23:42;2.40;;;1.63;;
1593;SDS011;790;47.000;16.084;2023-10-09T03:26:10;3.47;;;1.47;;
1593;SDS011;790;47.000;16.084;2023-10-09T03:28:38;1.67;;;1.33;;
1593;SDS011;790;47.000;16.084;2023-10-09T03:31:08;3.17;;;1.60;;
1593;SDS011;790;47.000;16.084;2023-10-09T03:33:35;1.50;;;1.40;;
1593;SDS011;790;47.000;16.084;2023-10-09T03:36:03;1.73;;;1.23;;
1593;SDS011;790;47.000;16.084;2023-10-09T03:38:34;1.50;;;1.40;;
1593;SDS011;790;47.000;16.084;2023-10-09T03:41:02;4.53;;;1.50;;
1593;SDS011;790;47.000;16.084;2023-10-09T03:43:35;1.37;;;1.27;;
1593;SDS011;790;47.000;16.084;2023-10-09T03:46:08;1.83;;;1.40;;
1593;SDS011;790;47.000;16.084;2023-10-09T03:48:46;6.00;;;1.83;;
1593;SDS011;790;47.000;16.084;2023-10-09T03:51:14;1.47;;;1.37;;
1593;SDS011;790;47.000;16.084;2023-10-09T03:53:46;1.30;;;1.30;;
1593;SDS011;790;47.000;16.084;2023-10-09T03:56:14;1.50;;;1.40;;
1593;SDS011;790;47.000;16.084;2023-10-09T03:58:43;1.50;;;1.40;;
1593;SDS011;790;47.000;16.084;2023-10-09T04:01:13;1.40;;;1.30;;
1593;SDS011;790;47.000;16.084;2023-10-09T04:03:48;1.23;;;1.23;;
1593;SDS011;790;47.000;16.084;2023-10-09T04:06:15;1.60;;;1.50;;
1593;SDS011;790;47.000;16.084;2023-10-09T04:08:43;1.30;;;1.30;;
1593;SDS011;790;47.000;16.084;2023-10-09T04:11:14;1.60;;;1.50;;
1593;SDS011;790;47.000;16.084;2023-10-09T04:13:48;1.20;;;1.20;;
1593;SDS011;790;47.000;16.084;2023-10-09T04:16:18;2.10;;;1.30;;
1593;SDS011;790;47.000;16.084;2023-10-09T04:19:17;1.90;;;1.50;;
1593;SDS011;790;47.000;16.084;2023-10-09T04:21:47;1.40;;;1.30;;
1593;SDS011;790;47.000;16.084;2023-10-09T04:24:14;1.50;;;1.40;;
1593;SDS011;790;47.000;16.084;2023-10-09T04:26:51;1.50;;;1.40;;
1593;SDS011;790;47.000;16.084;2023-10-09T04:29:25;1.77;;;1.67;;
1593;SDS011;790;47.000;16.084;2023-10-09T04:31:54;1.50;;;1.40;;
1593;SDS011;790;47.000;16.084;2023-10-09T04:34:22;1.57;;;1.47;;
1593;SDS011;790;47.000;16.084;2023-10-09T04:36:49;1.70;;;1.60;;
1593;SDS011;790;47.000;16.084;2023-10-09T04:39:17;1.20;;;1.20;;
1593;SDS011;790;47.000;16.084;2023-10-09T04:42:12;3.50;;;1.63;;
1593;SDS011;790;47.000;16.084;2023-10-09T04:44:57;1.60;;;1.50;;
1593;SDS011;790;47.000;16.084;2023-10-09T04:47:42;1.90;;;1.80;;
1593;SDS011;790;47.000;16.084;2023-10-09T04:50:23;1.90;;;1.73;;
1593;SDS011;790;47.000;16.084;2023-10-09T04:53:13;5.73;;;4.47;;
1593;SDS011;790;47.000;16.084;2023-10-09T04:55:48;3.93;;;2.77;;
1593;SDS011;790;47.000;16.084;2023-10-09T04:58:23;4.90;;;3.10;;
1593;SDS011;790;47.000;16.084;2023-10-09T05:00:52;3.47;;;3.13;;
1593;SDS011;790;47.000;16.084;2023-10-09T05:03:38;3.37;;;2.50;;
1593;SDS011;790;47.000;16.084;2023-10-09T05:06:22;1.90;;;1.80;;
1593;SDS011;790;47.000;16.084;2023-10-09T05:09:07;1.97;;;1.60;;
1593;SDS011;790;47.000;16.084;2023-10-09T05:11:34;2.80;;;1.97;;
1593;SDS011;790;47.000;16.084;2023-10-09T05:14:15;1.50;;;1.40;;
1593;SDS011;790;47.000;16.084;2023-10-09T05:16:44;2.50;;;1.50;;
1593;SDS011;790;47.000;16.084;2023-10-09T05:19:21;1.60;;;1.50;;
1593;SDS011;790;47.000;16.084;2023-10-09T05:22:20;1.43;;;1.30;;
1593;SDS011;790;47.000;16.084;2023-10-09T05:25:01;1.53;;;1.43;;
1593;SDS011;790;47.000;16.084;2023-10-09T05:27:40;1.87;;;1.77;;
1593;SDS011;790;47.000;16.084;2023-10-09T05:30:16;1.80;;;1.70;;
1593;SDS011;790;47.000;16.084;2023-10-09T05:32:53;1.47;;;1.43;;
1593;SDS011;790;47.000;16.084;2023-10-09T05:35:49;2.73;;;1.77;;
1593;SDS011;790;47.000;16.084;2023-10-09T05:38:31;3.13;;;1.53;;
1593;SDS011;790;47.000;16.084;2023-10-09T05:41:01;1.70;;;1.60;;
1593;SDS011;790;47.000;16.084;2023-10-09T05:43:50;1.93;;;1.83;;
1593;SDS011;790;47.000;16.084;2023-10-09T05:46:35;2.30;;;2.10;;
1593;SDS011;790;47.000;16.084;2023-10-09T05:49:02;2.90;;;2.10;;
1593;SDS011;790;47.000;16.084;2023-10-09T05:51:36;2.63;;;1.77;;
1593;SDS011;790;47.000;16.084;2023-10-09T05:54:18;1.90;;;1.80;;
1593;SDS011;790;47.000;16.084;2023-10-09T05:57:05;1.70;;;1.60;;
1593;SDS011;790;47.000;16.084;2023-10-09T05:59:50;2.23;;;2.00;;
1593;SDS011;790;47.000;16.084;2023-10-09T06:02:35;1.87;;;1.77;;
1593;SDS011;790;47.000;16.084;2023-10-09T06:05:25;2.10;;;2.00;;
1593;SDS011;790;47.000;16.084;2023-10-09T06:08:10;2.37;;;2.17;;
1593;SDS011;790;47.000;16.084;2023-10-09T06:10:38;3.17;;;1.80;;
1593;SDS011;790;47.000;16.084;2023-10-09T06:13:07;2.30;;;2.10;;
1593;SDS011;790;47.000;16.084;2023-10-09T06:16:02;2.03;;;1.87;;
1593;SDS011;790;47.000;16.084;2023-10-09T06:18:45;1.97;;;1.87;;
1593;SDS011;790;47.000;16.084;2023-10-09T06:21:21;2.60;;;2.40;;
1593;SDS011;790;47.000;16.084;2023-10-09T06:24:31;2.73;;;2.53;;
1593;SDS011;790;47.000;16.084;2023-10-09T06:27:07;2.60;;;2.40;;
1593;SDS011;790;47.000;16.084;2023-10-09T06:29:59;3.23;;;2.63;;
1593;SDS011;790;47.000;16.084;2023-10-09T06:32:47;3.27;;;2.27;;
1593;SDS011;790;47.000;16.084;2023-10-09T06:35:17;2.80;;;2.23;;
1593;SDS011;790;47.000;16.084;2023-10-09T06:37:49;2.73;;;2.50;;
1593;SDS011;790;47.000;16.084;2023-10-09T06:40:36;2.73;;;2.53;;
1593;SDS011;790;47.000;16.084;2023-10-09T06:43:21;2.53;;;2.33;;
1593;SDS011;790;47.000;16.084;2023-10-09T06:45:57;2.43;;;2.00;;
1593;SDS011;790;47.000;16.084;2023-10-09T06:48:45;1.90;;;1.80;;
1593;SDS011;790;47.000;16.084;2023-10-09T06:51:21;2.13;;;2.00;;
1593;SDS011;790;47.000;16.084;2023-10-09T06:54:06;3.60;;;1.80;;
1593;SDS011;790;47.000;16.084;2023-10-09T06:56:36;2.63;;;2.00;;
1593;SDS011;790;47.000;16.084;2023-10-09T06:59:20;2.10;;;2.00;;
1593;SDS011;790;47.000;16.084;2023-10-09T07:01:50;3.03;;;1.87;;
1593;SDS011;790;47.000;16.084;2023-10-09T07:04:33;2.30;;;2.10;;
1593;SDS011;790;47.000;16.084;2023-10-09T07:07:13;2.13;;;2.00;;
1593;SDS011;790;47.000;16.084;2023-10-09T07:09:41;1.80;;;1.70;;
1593;SDS011;790;47.000;16.084;2023-10-09T07:12:34;3.63;;;2.00;;
1593;SDS011;790;47.000;16.084;2023-10-09T07:15:08;2.40;;;2.00;;
1593;SDS011;790;47.000;16.084;2023-10-09T07:18:01;3.40;;;2.13;;
1593;SDS011;790;47.000;16.084;2023-10-09T07:20:44;2.53;;;2.00;;
1593;SDS011;790;47.000;16.084;2023-10-09T07:23:24;2.40;;;2.10;;
1593;SDS011;790;47.000;16.084;2023-10-09T07:26:00;2.07;;;1.90;;
1593;SDS011;790;47.000;16.084;2023-10-09T07:28:45;2.90;;;2.17;;
1593;SDS011;790;47.000;16.084;2023-10-09T07:31:18;1.93;;;1.50;;
1593;SDS011;790;47.000;16.084;2023-10-09T07:33:53;1.83;;;1.73;;
1593;SDS011;790;47.000;16.084;2023-10-09T07:36:51;3.33;;;2.10;;
1593;SDS011;790;47.000;16.084;2023-10-09T07:39:21;2.63;;;1.73;;
1593;SDS011;790;47.000;16.084;2023-10-09T07:41:49;2.10;;;2.00;;
1593;SDS011;790;47.000;16.084;2023-10-09T07:44:42;2.47;;;2.37;;
1593;SDS011;790;47.000;16.084;2023-10-09T07:47:18;2.30;;;2.10;;
1593;SDS011;790;47.000;16.084;2023-10-09T07:50:11;2.20;;;2.00;;
1593;SDS011;790;47.000;16.084;2023-10-09T07:52:41;4.07;;;2.03;;
1593;SDS011;790;47.000;16.084;2023-10-09T07:55:12;3.33;;;2.10;;
1593;SDS011;790;47.000;16.084;2023-10-09T07:57:51;3.17;;;2.27;;
1593;SDS011;790;47.000;16.084;2023-10-09T08:00:20;2.07;;;1.80;;
1593;SDS011;790;47.000;16.084;2023-10-09T08:03:02;2.53;;;2.33;;
1593;SDS011;790;47.000;16.084;2023-10-09T08:05:49;2.13;;;2.03;;
1593;SDS011;790;47.000;16.084;2023-10-09T08:08:18;2.63;;;2.43;;
1593;SDS011;790;47.000;16.084;2023-10-09T08:10:59;3.93;;;2.30;;
1593;SDS011;790;47.000;16.084;2023-10-09T08:13:45;3.30;;;1.60;;
1593;SDS011;790;47.000;16.084;2023-10-09T08:16:27;2.43;;;1.80;;
1593;SDS011;790;47.000;16.084;2023-10-09T08:19:01;1.70;;;1.60;;
1593;SDS011;790;47.000;16.084;2023-10-09T08:21:46;2.27;;;2.07;;
1593;SDS011;790;47.000;16.084;2023-10-09T08:24:32;2.40;;;2.00;;
1593;SDS011;790;47.000;16.084;2023-10-09T08:27:06;3.00;;;1.97;;
1593;SDS011;790;47.000;16.084;2023-10-09T08:29:51;2.43;;;2.20;;
1593;SDS011;790;47.000;16.084;2023-10-09T08:32:39;3.77;;;2.50;;
1593;SDS011;790;47.000;16.084;2023-10-09T08:35:08;2.70;;;2.07;;
1593;SDS011;790;47.000;16.084;2023-10-09T08:37:51;3.07;;;2.27;;
1593;SDS011;790;47.000;16.084;2023-10-09T08:40:18;3.33;;;2.40;;
1593;SDS011;790;47.000;16.084;2023-10-09T08:42:47;4.07;;;2.47;;
1593;SDS011;790;47.000;16.084;2023-10-09T08:45:20;3.30;;;2.23;;
1593;SDS011;790;47.000;16.084;2023-10-09T08:47:51;2.00;;;1.90;;
1593;SDS011;790;47.000;16.084;2023-10-09T08:50:20;2.50;;;2.30;;
1593;SDS011;790;47.000;16.084;2023-10-09T08:52:47;2.10;;;2.00;;
1593;SDS011;790;47.000;16.084;2023-10-09T08:55:16;6.50;;;2.40;;
1593;SDS011;790;47.000;16.084;2023-10-09T08:57:43;2.43;;;2.23;;
1593;SDS011;790;47.000;16.084;2023-10-09T09:00:16;6.17;;;2.63;;
1593;SDS011;790;47.000;16.084;2023-10-09T09:02:47;4.37;;;2.30;;
1593;SDS011;790;47.000;16.084;2023-10-09T09:05:19;4.50;;;2.43;;
1593;SDS011;790;47.000;16.084;2023-10-09T09:07:46;3.13;;;2.47;;
1593;SDS011;790;47.000;16.084;2023-10-09T09:10:14;2.93;;;2.40;;
1593;SDS011;790;47.000;16.084;2023-10-09T09:12:46;2.53;;;2.27;;
1593;SDS011;790;47.000;16.084;2023-10-09T09:15:20;3.83;;;2.37;;
1593;SDS011;790;47.000;16.084;2023-10-09T09:17:52;3.77;;;2.53;;
1593;SDS011;790;47.000;16.084;2023-10-09T09:20:32;5.33;;;2.50;;
1593;SDS011;790;47.000;16.084;2023-10-09T09:23:02;4.03;;;2.63;;
1593;SDS011;790;47.000;16.084;2023-10-09T09:25:39;2.60;;;2.40;;
1593;SDS011;790;47.000;16.084;2023-10-09T09:28:09;3.23;;;2.77;;
1593;SDS011;790;47.000;16.084;2023-10-09T09:30:38;3.00;;;2.60;;
1593;SDS011;790;47.000;16.084;2023-10-09T09:33:18;2.83;;;2.60;;
1593;SDS011;790;47.000;16.084;2023-10-09T09:35:57;3.00;;;2.63;;
1593;SDS011;790;47.000;16.084;2023-10-09T09:38:29;2.93;;;2.50;;
1593;SDS011;790;47.000;16.084;2023-10-09T09:41:07;2.63;;;2.30;;
1593;SDS011;790;47.000;16.084;2023-10-09T09:43:36;2.60;;;2.40;;
1593;SDS011;790;47.000;16.084;2023-10-09T09:46:06;2.63;;;2.37;;
1593;SDS011;790;47.000;16.084;2023-10-09T09:48:39;2.50;;;2.30;;
1593;SDS011;790;47.000;16.084;2023-10-09T09:51:11;2.43;;;2.30;;
1593;SDS011;790;47.000;16.084;2023-10-09T09:53:40;2.67;;;2.13;;
1593;SDS011;790;47.000;16.084;2023-10-09T09:56:07;3.67;;;2.40;;
1593;SDS011;790;47.000;16.084;2023-10-09T09:58:43;4.53;;;2.30;;
1593;SDS011;790;47.000;16.084;2023-10-09T10:01:18;2.37;;;2.17;;
1593;SDS011;790;47.000;16.084;2023-10-09T10:03:51;3.10;;;2.43;;
1593;SDS011;790;47.000;16.084;2023-10-09T10:06:25;2.50;;;2.37;;
1593;SDS011;790;47.000;16.084;2023-10-09T10:08:57;6.67;;;2.53;;
1593;SDS011;790;47.000;16.084;2023-10-09T10:14:10;2.10;;;1.90;;
1593;SDS011;790;47.000;16.084;2023-10-09T10:17:03;2.43;;;2.10;;
1593;SDS011;790;47.000;16.084;2023-10-09T10:22:41;3.60;;;2.37;;
1593;SDS011;790;47.000;16.084;2023-10-09T10:25:21;5.13;;;2.33;;
1593;SDS011;790;47.000;16.084;2023-10-09T10:28:16;3.03;;;2.20;;
1593;SDS011;790;47.000;16.084;2023-10-09T10:30:55;3.50;;;2.20;;
1593;SDS011;790;47.000;16.084;2023-10-09T10:33:27;6.10;;;2.30;;
1593;SDS011;790;47.000;16.084;2023-10-09T10:36:35;3.00;;;2.20;;
1593;SDS011;790;47.000;16.084;2023-10-09T10:39:09;2.40;;;2.17;;
1593;SDS011;790;47.000;16.084;2023-10-09T10:41:52;3.40;;;2.13;;
1593;SDS011;790;47.000;16.084;2023-10-09T10:44:27;2.58;;;2.13;;
1593;SDS011;790;47.000;16.084;2023-10-09T10:47:03;2.27;;;2.10;;
1593;SDS011;790;47.000;16.084;2023-10-09T10:49:42;5.82;;;2.72;;
1593;SDS011;790;47.000;16.084;2023-10-09T10:52:19;3.00;;;2.40;;
1593;SDS011;790;47.000;16.084;2023-10-09T10:54:48;2.50;;;2.00;;
1593;SDS011;790;47.000;16.084;2023-10-09T10:57:29;2.43;;;2.23;;
1593;SDS011;790;47.000;16.084;2023-10-09T11:00:19;2.40;;;2.20;;
1593;SDS011;790;47.000;16.084;2023-10-09T11:03:00;2.97;;;2.43;;
1593;SDS011;790;47.000;16.084;2023-10-09T11:05:41;8.13;;;6.15;;
1593;SDS011;790;47.000;16.084;2023-10-09T11:08:15;3.30;;;2.40;;
1593;SDS011;790;47.000;16.084;2023-10-09T11:10:49;4.47;;;3.33;;
1593;SDS011;790;47.000;16.084;2023-10-09T11:13:21;5.53;;;2.40;;
1593;SDS011;790;47.000;16.084;2023-10-09T11:16:01;4.07;;;2.55;;
1593;SDS011;790;47.000;16.084;2023-10-09T11:18:55;2.80;;;2.30;;
1593;SDS011;790;47.000;16.084;2023-10-09T11:21:32;3.08;;;2.78;;
1593;SDS011;790;47.000;16.084;2023-10-09T11:24:07;6.50;;;5.07;;
1593;SDS011;790;47.000;16.084;2023-10-09T11:26:59;4.30;;;2.55;;
1593;SDS011;790;47.000;16.084;2023-10-09T11:29:31;5.90;;;2.50;;
1593;SDS011;790;47.000;16.084;2023-10-09T11:32:14;5.35;;;2.75;;
1593;SDS011;790;47.000;16.084;2023-10-09T11:34:43;2.65;;;2.45;;
1593;SDS011;790;47.000;16.084;2023-10-09T11:37:18;2.28;;;2.17;;
1593;SDS011;790;47.000;16.084;2023-10-09T11:40:03;3.58;;;2.67;;
1593;SDS011;790;47.000;16.084;2023-10-09T11:42:49;4.10;;;2.63;;
1593;SDS011;790;47.000;16.084;2023-10-09T11:45:25;2.70;;;2.42;;
1593;SDS011;790;47.000;16.084;2023-10-09T11:47:56;8.23;;;3.30;;
1593;SDS011;790;47.000;16.084;2023-10-09T11:53:16;3.53;;;2.53;;
1593;SDS011;790;47.000;16.084;2023-10-09T11:55:59;2.75;;;2.35;;
1593;SDS011;790;47.000;16.084;2023-10-09T11:58:28;7.50;;;2.53;;
1593;SDS011;790;47.000;16.084;2023-10-09T12:00:56;3.85;;;2.10;;
1593;SDS011;790;47.000;16.084;2023-10-09T12:03:25;6.07;;;2.83;;
1593;SDS011;790;47.000;16.084;2023-10-09T12:05:57;3.03;;;2.70;;
1593;SDS011;790;47.000;16.084;2023-10-09T12:08:35;3.08;;;2.28;;
1593;SDS011;790;47.000;16.084;2023-10-09T12:11:02;8.52;;;3.15;;
1593;SDS011;790;47.000;16.084;2023-10-09T12:13:35;4.35;;;2.42;;
1593;SDS011;790;47.000;16.084;2023-10-09T12:16:03;3.50;;;2.47;;
1593;SDS011;790;47.000;16.084;2023-10-09T12:18:35;6.05;;;2.90;;
1593;SDS011;790;47.000;16.084;2023-10-09T12:21:04;3.53;;;2.35;;
1593;SDS011;790;47.000;16.084;2023-10-09T12:23:33;4.65;;;2.88;;
1593;SDS011;790;47.000;16.084;2023-10-09T12:26:01;3.35;;;2.40;;
1593;SDS011;790;47.000;16.084;2023-10-09T12:28:28;7.40;;;3.40;;
1593;SDS011;790;47.000;16.084;2023-10-09T12:30:59;7.55;;;3.58;;
1593;SDS011;790;47.000;16.084;2023-10-09T12:33:28;4.20;;;2.63;;
1593;SDS011;790;47.000;16.084;2023-10-09T12:35:56;6.85;;;2.88;;
1593;SDS011;790;47.000;16.084;2023-10-09T12:38:25;8.45;;;3.05;;
1593;SDS011;790;47.000;16.084;2023-10-09T12:41:00;3.88;;;2.65;;
1593;SDS011;790;47.000;16.084;2023-10-09T12:43:33;4.78;;;2.33;;
1593;SDS011;790;47.000;16.084;2023-10-09T12:46:06;4.40;;;2.63;;
1593;SDS011;790;47.000;16.084;2023-10-09T12:48:34;2.58;;;2.33;;
1593;SDS011;790;47.000;16.084;2023-10-09T12:51:02;3.90;;;2.50;;
1593;SDS011;790;47.000;16.084;2023-10-09T12:53:31;5.63;;;2.47;;
1593;SDS011;790;47.000;16.084;2023-10-09T12:55:59;4.07;;;2.42;;
1593;SDS011;790;47.000;16.084;2023-10-09T12:58:26;5.10;;;2.63;;
1593;SDS011;790;47.000;16.084;2023-10-09T13:00:53;7.28;;;2.85;;
1593;SDS011;790;47.000;16.084;2023-10-09T13:03:21;5.07;;;2.20;;
1593;SDS011;790;47.000;16.084;2023-10-09T13:05:54;5.00;;;2.70;;
1593;SDS011;790;47.000;16.084;2023-10-09T13:08:22;5.30;;;2.85;;
1593;SDS011;790;47.000;16.084;2023-10-09T13:10:56;5.28;;;2.30;;
1593;SDS011;790;47.000;16.084;2023-10-09T13:13:33;6.82;;;2.75;;
1593;SDS011;790;47.000;16.084;2023-10-09T13:16:08;7.40;;;2.90;;
1593;SDS011;790;47.000;16.084;2023-10-09T13:18:52;3.65;;;2.50;;
1593;SDS011;790;47.000;16.084;2023-10-09T13:21:21;6.45;;;2.90;;
1593;SDS011;790;47.000;16.084;2023-10-09T13:23:49;5.88;;;3.33;;
1593;SDS011;790;47.000;16.084;2023-10-09T13:26:19;5.63;;;2.75;;
1593;SDS011;790;47.000;16.084;2023-10-09T13:28:53;7.57;;;3.05;;
1593;SDS011;790;47.000;16.084;2023-10-09T13:31:21;4.82;;;2.53;;
1593;SDS011;790;47.000;16.084;2023-10-09T13:33:53;8.65;;;3.20;;
1593;SDS011;790;47.000;16.084;2023-10-09T13:36:21;5.93;;;2.63;;
1593;SDS011;790;47.000;16.084;2023-10-09T13:38:56;2.97;;;2.58;;
1593;SDS011;790;47.000;16.084;2023-10-09T13:41:27;5.70;;;2.75;;
1593;SDS011;790;47.000;16.084;2023-10-09T13:43:54;4.97;;;2.95;;
1593;SDS011;790;47.000;16.084;2023-10-09T13:46:23;4.35;;;2.92;;
1593;SDS011;790;47.000;16.084;2023-10-09T13:48:50;4.10;;;3.50;;
1593;SDS011;790;47.000;16.084;2023-10-09T13:51:20;3.95;;;3.00;;
1593;SDS011;790;47.000;16.084;2023-10-09T13:53:49;7.60;;;2.90;;
1593;SDS011;790;47.000;16.084;2023-10-09T13:56:17;3.25;;;2.80;;
1593;SDS011;790;47.000;16.084;2023-10-09T13:58:46;5.32;;;3.20;;
1593;SDS011;790;47.000;16.084;2023-10-09T14:01:14;5.28;;;3.05;;
1593;SDS011;790;47.000;16.084;2023-10-09T14:03:57;4.05;;;2.88;;
1593;SDS011;790;47.000;16.084;2023-10-09T14:06:25;4.28;;;2.63;;
1593;SDS011;790;47.000;16.084;2023-10-09T14:08:57;3.08;;;2.78;;
1593;SDS011;790;47.000;16.084;2023-10-09T14:11:25;2.88;;;2.55;;
1593;SDS011;790;47.000;16.084;2023-10-09T14:13:53;3.97;;;2.50;;
1593;SDS011;790;47.000;16.084;2023-10-09T14:16:20;9.80;;;5.13;;
1593;SDS011;790;47.000;16.084;2023-10-09T14:19:01;5.85;;;3.55;;
1593;SDS011;790;47.000;16.084;2023-10-09T14:21:33;5.90;;;2.85;;
1593;SDS011;790;47.000;16.084;2023-10-09T14:24:03;4.65;;;2.50;;
1593;SDS011;790;47.000;16.084;2023-10-09T14:26:40;4.18;;;2.50;;
1593;SDS011;790;47.000;16.084;2023-10-09T14:29:10;3.35;;;2.58;;
1593;SDS011;790;47.000;16.084;2023-10-09T14:31:42;5.30;;;3.95;;
1593;SDS011;790;47.000;16.084;2023-10-09T14:34:15;2.85;;;2.22;;
1593;SDS011;790;47.000;16.084;2023-10-09T14:36:43;3.55;;;2.75;;
1593;SDS011;790;47.000;16.084;2023-10-09T14:39:10;5.53;;;3.40;;
1593;SDS011;790;47.000;16.084;2023-10-09T14:41:38;7.15;;;3.22;;
1593;SDS011;790;47.000;16.084;2023-10-09T14:44:06;7.55;;;3.55;;
1593;SDS011;790;47.000;16.084;2023-10-09T14:46:41;4.63;;;2.72;;
1593;SDS011;790;47.000;16.084;2023-10-09T14:49:09;4.18;;;3.08;;
1593;SDS011;790;47.000;16.084;2023-10-09T14:51:43;7.82;;;3.60;;
1593;SDS011;790;47.000;16.084;2023-10-09T14:54:11;8.27;;;3.05;;
1593;SDS011;790;47.000;16.084;2023-10-09T14:56:43;7.22;;;2.85;;
1593;SDS011;790;47.000;16.084;2023-10-09T14:59:10;2.47;;;2.28;;
1593;SDS011;790;47.000;16.084;2023-10-09T15:01:37;6.38;;;2.65;;
1593;SDS011;790;47.000;16.084;2023-10-09T15:04:05;5.90;;;2.38;;
1593;SDS011;790;47.000;16.084;2023-10-09T15:06:32;3.95;;;2.25;;
1593;SDS011;790;47.000;16.084;2023-10-09T15:09:02;4.43;;;2.50;;
1593;SDS011;790;47.000;16.084;2023-10-09T15:11:34;5.47;;;2.13;;
1593;SDS011;790;47.000;16.084;2023-10-09T15:14:04;7.03;;;3.50;;
1593;SDS011;790;47.000;16.084;2023-10-09T15:16:32;9.73;;;3.35;;
1593;SDS011;790;47.000;16.084;2023-10-09T15:19:00;3.08;;;2.72;;
1593;SDS011;790;47.000;16.084;2023-10-09T15:21:28;6.40;;;2.78;;
1593;SDS011;790;47.000;16.084;2023-10-09T15:23:57;4.22;;;2.80;;
1593;SDS011;790;47.000;16.084;2023-10-09T15:26:26;2.92;;;2.60;;
1593;SDS011;790;47.000;16.084;2023-10-09T15:28:59;4.43;;;4.03;;
1593;SDS011;790;47.000;16.084;2023-10-09T15:31:29;4.57;;;3.00;;
1593;SDS011;790;47.000;16.084;2023-10-09T15:33:57;4.05;;;3.10;;
1593;SDS011;790;47.000;16.084;2023-10-09T15:36:25;3.20;;;2.40;;
1593;SDS011;790;47.000;16.084;2023-10-09T15:38:54;10.50;;;5.13;;
1593;SDS011;790;47.000;16.084;2023-10-09T15:41:27;5.70;;;3.33;;
1593;SDS011;790;47.000;16.084;2023-10-09T15:43:56;4.95;;;2.80;;
1593;SDS011;790;47.000;16.084;2023-10-09T15:46:26;5.80;;;2.70;;
1593;SDS011;790;47.000;16.084;2023-10-09T15:48:58;3.25;;;2.30;;
1593;SDS011;790;47.000;16.084;2023-10-09T15:51:26;4.47;;;3.15;;
1593;SDS011;790;47.000;16.084;2023-10-09T15:53:54;4.72;;;3.88;;
1593;SDS011;790;47.000;16.084;2023-10-09T15:56:22;8.65;;;5.88;;
1593;SDS011;790;47.000;16.084;2023-10-09T15:58:51;6.80;;;3.80;;
1593;SDS011;790;47.000;16.084;2023-10-09T16:01:19;7.07;;;3.43;;
1593;SDS011;790;47.000;16.084;2023-10-09T16:03:47;2.90;;;2.60;;
1593;SDS011;790;47.000;16.084;2023-10-09T16:06:17;8.88;;;2.90;;
1593;SDS011;790;47.000;16.084;2023-10-09T16:08:45;3.20;;;2.75;;